This is the latest recevied weather packets stored in our database for station/object DM1MT. If no packets are shown the sender has not sent any weather packets the latest 10 day(s).
| Time | Temp. | Humidity | Pressure | Rain* | Wind** | Luminosity | Snow |
|---|---|---|---|---|---|---|---|
| 1777742301 | 27.78° C | 31% | 1007.3 hPa | 0 mm | - | 163 W/m² | - |
| 1777739261 | 27.78° C | 30% | 1007.4 hPa | 0 mm | - | 260 W/m² | - |
| 1777738681 | 27.78° C | 32% | 1007.8 hPa | 0 mm | - | 244 W/m² | - |
| 1777735101 | 27.78° C | 28% | 1008.4 hPa | 0 mm | - | 253 W/m² | - |
| 1777731541 | 28.33° C | 27% | 1009.4 hPa | 0 mm | - | 291 W/m² | - |
| 1777729721 | 27.78° C | 26% | 1009.5 hPa | 0 mm | - | 171 W/m² | - |
| 1777724246 | 26.11° C | 31% | 1010.7 hPa | 0 mm | - | 317 W/m² | - |
| 1777722521 | 26.11° C | 30% | 1011.3 hPa | 0 mm | - | 385 W/m² | - |
| 1777717660 | 23.89° C | 34% | 1012.2 hPa | 0 mm | - | 335 W/m² | - |
| 1777702080 | 12.22° C | 66% | 1013.8 hPa | 0 mm | - | 81 W/m² | - |
| 1777701666 | 12.22° C | 65% | 1013.7 hPa | 0 mm | - | 71 W/m² | - |
| 1777700881 | 11.67° C | 63% | 1013.8 hPa | 0 mm | - | 61 W/m² | - |
| 1777698560 | 10° C | 69% | 1013.8 hPa | 0 mm | - | 27 W/m² | - |
| 1777693700 | 6.11° C | 80% | 1013.6 hPa | 0 mm | - | 0 W/m² | - |
| 1777691883 | 6.67° C | 80% | 1013.8 hPa | 0 mm | - | 0 W/m² | - |
| 1777684140 | 10.56° C | 68% | 1014.3 hPa | 0 mm | - | 0 W/m² | - |
| 1777682860 | 10° C | 71% | 1014.5 hPa | 0 mm | - | 0 W/m² | - |
| 1777678719 | 13.89° C | 53% | 1014.9 hPa | 0 mm | - | 0 W/m² | - |
| 1777678119 | 13.89° C | 54% | 1014.9 hPa | 0 mm | - | 0 W/m² | - |
| 1777670923 | 13.89° C | 57% | 1014.8 hPa | 0 mm | - | 0 W/m² | - |
| 1777670248 | 14.44° C | 56% | 1014.8 hPa | 0 mm | - | 0 W/m² | - |
| 1777669739 | 15° C | 56% | 1014.8 hPa | 0 mm | - | 0 W/m² | - |
| 1777669119 | 15° C | 55% | 1014.8 hPa | 0 mm | - | 0 W/m² | - |
| 1777663760 | 18.33° C | 45% | 1014.7 hPa | 0 mm | - | 0 W/m² | - |
| 1777662445 | 19.44° C | 43% | 1014.9 hPa | 0 mm | - | 0 W/m² | - |
* Rain latest hour (hover to see other rain measurements)
** Current wind speed in m/s (hover to see current wind gust speed)